sensor_id;sensor_type;location;lat;lon;timestamp;P1;durP1;ratioP1;P2;durP2;ratioP2
9445;SDS011;4761;49.490;10.908;2022-09-09T00:01:14;2.00;;;1.10;;
9445;SDS011;4761;49.490;10.908;2022-09-09T00:04:01;3.58;;;1.20;;
9445;SDS011;4761;49.490;10.908;2022-09-09T00:06:42;3.42;;;1.20;;
9445;SDS011;4761;49.490;10.908;2022-09-09T00:09:22;2.10;;;1.20;;
9445;SDS011;4761;49.490;10.908;2022-09-09T00:11:54;1.50;;;1.10;;
9445;SDS011;4761;49.490;10.908;2022-09-09T00:14:40;4.13;;;1.52;;
9445;SDS011;4761;49.490;10.908;2022-09-09T00:17:19;2.10;;;1.08;;
9445;SDS011;4761;49.490;10.908;2022-09-09T00:23:24;1.38;;;0.93;;
9445;SDS011;4761;49.490;10.908;2022-09-09T00:28:36;2.08;;;1.27;;
9445;SDS011;4761;49.490;10.908;2022-09-09T00:31:11;2.45;;;1.50;;
9445;SDS011;4761;49.490;10.908;2022-09-09T00:33:40;3.00;;;1.38;;
9445;SDS011;4761;49.490;10.908;2022-09-09T00:36:10;3.10;;;1.20;;
9445;SDS011;4761;49.490;10.908;2022-09-09T00:38:42;4.22;;;1.42;;
9445;SDS011;4761;49.490;10.908;2022-09-09T00:46:54;3.10;;;1.50;;
9445;SDS011;4761;49.490;10.908;2022-09-09T00:55:08;4.50;;;2.70;;
9445;SDS011;4761;49.490;10.908;2022-09-09T00:57:36;3.72;;;2.58;;
9445;SDS011;4761;49.490;10.908;2022-09-09T01:11:01;5.03;;;2.50;;
9445;SDS011;4761;49.490;10.908;2022-09-09T01:13:31;3.83;;;2.65;;
9445;SDS011;4761;49.490;10.908;2022-09-09T01:16:02;3.80;;;2.35;;
9445;SDS011;4761;49.490;10.908;2022-09-09T01:18:32;4.57;;;2.20;;
9445;SDS011;4761;49.490;10.908;2022-09-09T01:21:09;3.25;;;2.50;;
9445;SDS011;4761;49.490;10.908;2022-09-09T01:23:48;3.53;;;1.92;;
9445;SDS011;4761;49.490;10.908;2022-09-09T01:26:41;3.55;;;2.00;;
9445;SDS011;4761;49.490;10.908;2022-09-09T01:29:11;3.22;;;1.70;;
9445;SDS011;4761;49.490;10.908;2022-09-09T01:31:53;5.68;;;2.15;;
9445;SDS011;4761;49.490;10.908;2022-09-09T01:34:20;3.30;;;1.80;;
9445;SDS011;4761;49.490;10.908;2022-09-09T01:36:57;4.47;;;1.75;;
9445;SDS011;4761;49.490;10.908;2022-09-09T01:39:29;3.03;;;1.60;;
9445;SDS011;4761;49.490;10.908;2022-09-09T01:41:55;2.40;;;1.50;;
9445;SDS011;4761;49.490;10.908;2022-09-09T01:44:21;2.25;;;1.55;;
9445;SDS011;4761;49.490;10.908;2022-09-09T01:46:49;1.85;;;1.60;;
9445;SDS011;4761;49.490;10.908;2022-09-09T01:49:14;2.17;;;1.33;;
9445;SDS011;4761;49.490;10.908;2022-09-09T01:51:41;3.13;;;1.60;;
9445;SDS011;4761;49.490;10.908;2022-09-09T01:54:08;2.90;;;1.63;;
9445;SDS011;4761;49.490;10.908;2022-09-09T02:05:34;4.93;;;1.40;;
9445;SDS011;4761;49.490;10.908;2022-09-09T02:08:15;2.70;;;1.60;;
9445;SDS011;4761;49.490;10.908;2022-09-09T02:11:03;1.98;;;1.48;;
9445;SDS011;4761;49.490;10.908;2022-09-09T02:13:32;4.18;;;1.30;;
9445;SDS011;4761;49.490;10.908;2022-09-09T02:16:07;2.17;;;1.40;;
9445;SDS011;4761;49.490;10.908;2022-09-09T02:18:46;1.67;;;1.17;;
9445;SDS011;4761;49.490;10.908;2022-09-09T02:21:30;1.83;;;1.30;;
9445;SDS011;4761;49.490;10.908;2022-09-09T02:23:59;2.35;;;1.23;;
9445;SDS011;4761;49.490;10.908;2022-09-09T02:26:29;2.58;;;1.30;;
9445;SDS011;4761;49.490;10.908;2022-09-09T02:28:59;1.30;;;1.20;;
9445;SDS011;4761;49.490;10.908;2022-09-09T02:31:28;1.58;;;1.30;;
9445;SDS011;4761;49.490;10.908;2022-09-09T02:33:55;1.30;;;1.20;;
9445;SDS011;4761;49.490;10.908;2022-09-09T02:36:25;2.13;;;1.20;;
9445;SDS011;4761;49.490;10.908;2022-09-09T02:38:54;2.42;;;1.20;;
9445;SDS011;4761;49.490;10.908;2022-09-09T02:41:20;1.50;;;1.20;;
9445;SDS011;4761;49.490;10.908;2022-09-09T02:43:50;1.40;;;1.05;;
9445;SDS011;4761;49.490;10.908;2022-09-09T02:51:53;1.95;;;1.30;;
9445;SDS011;4761;49.490;10.908;2022-09-09T02:54:33;1.50;;;1.00;;
9445;SDS011;4761;49.490;10.908;2022-09-09T02:57:11;2.60;;;1.20;;
9445;SDS011;4761;49.490;10.908;2022-09-09T02:59:39;2.55;;;1.20;;
9445;SDS011;4761;49.490;10.908;2022-09-09T03:02:05;1.85;;;1.38;;
9445;SDS011;4761;49.490;10.908;2022-09-09T03:04:30;2.55;;;1.60;;
9445;SDS011;4761;49.490;10.908;2022-09-09T03:06:57;1.92;;;1.30;;
9445;SDS011;4761;49.490;10.908;2022-09-09T03:09:23;3.92;;;1.40;;
9445;SDS011;4761;49.490;10.908;2022-09-09T03:11:49;2.70;;;1.30;;
9445;SDS011;4761;49.490;10.908;2022-09-09T03:14:15;1.15;;;0.95;;
9445;SDS011;4761;49.490;10.908;2022-09-09T03:16:41;3.17;;;1.40;;
9445;SDS011;4761;49.490;10.908;2022-09-09T03:19:08;2.10;;;1.10;;
9445;SDS011;4761;49.490;10.908;2022-09-09T03:21:33;3.00;;;1.23;;
9445;SDS011;4761;49.490;10.908;2022-09-09T03:23:59;2.58;;;1.27;;
9445;SDS011;4761;49.490;10.908;2022-09-09T03:26:24;1.40;;;1.15;;
9445;SDS011;4761;49.490;10.908;2022-09-09T03:28:50;2.42;;;1.30;;
9445;SDS011;4761;49.490;10.908;2022-09-09T03:31:16;7.85;;;1.42;;
9445;SDS011;4761;49.490;10.908;2022-09-09T03:33:42;2.40;;;1.50;;
9445;SDS011;4761;49.490;10.908;2022-09-09T03:36:07;2.95;;;1.20;;
9445;SDS011;4761;49.490;10.908;2022-09-09T03:38:33;2.20;;;1.40;;
9445;SDS011;4761;49.490;10.908;2022-09-09T03:40:59;3.65;;;1.40;;
9445;SDS011;4761;49.490;10.908;2022-09-09T03:43:26;2.35;;;1.45;;
9445;SDS011;4761;49.490;10.908;2022-09-09T03:45:53;2.13;;;1.25;;
9445;SDS011;4761;49.490;10.908;2022-09-09T03:48:22;2.38;;;1.02;;
9445;SDS011;4761;49.490;10.908;2022-09-09T03:50:49;1.95;;;1.08;;
9445;SDS011;4761;49.490;10.908;2022-09-09T03:53:16;1.63;;;1.00;;
9445;SDS011;4761;49.490;10.908;2022-09-09T03:55:46;1.30;;;1.20;;
9445;SDS011;4761;49.490;10.908;2022-09-09T03:58:14;1.95;;;1.23;;
9445;SDS011;4761;49.490;10.908;2022-09-09T04:00:40;2.20;;;1.30;;
9445;SDS011;4761;49.490;10.908;2022-09-09T04:03:08;1.67;;;1.13;;
9445;SDS011;4761;49.490;10.908;2022-09-09T04:05:34;1.98;;;1.30;;
9445;SDS011;4761;49.490;10.908;2022-09-09T04:08:04;4.07;;;1.40;;
9445;SDS011;4761;49.490;10.908;2022-09-09T04:10:30;2.58;;;1.20;;
9445;SDS011;4761;49.490;10.908;2022-09-09T04:12:56;1.83;;;1.42;;
9445;SDS011;4761;49.490;10.908;2022-09-09T04:15:22;3.60;;;1.30;;
9445;SDS011;4761;49.490;10.908;2022-09-09T04:17:47;1.98;;;1.40;;
9445;SDS011;4761;49.490;10.908;2022-09-09T04:20:13;2.10;;;1.20;;
9445;SDS011;4761;49.490;10.908;2022-09-09T04:22:38;1.48;;;1.20;;
9445;SDS011;4761;49.490;10.908;2022-09-09T04:25:05;1.77;;;1.23;;
9445;SDS011;4761;49.490;10.908;2022-09-09T04:27:31;2.65;;;1.23;;
9445;SDS011;4761;49.490;10.908;2022-09-09T04:29:57;2.25;;;1.30;;
9445;SDS011;4761;49.490;10.908;2022-09-09T04:32:22;1.80;;;1.10;;
9445;SDS011;4761;49.490;10.908;2022-09-09T04:34:48;1.45;;;1.08;;
9445;SDS011;4761;49.490;10.908;2022-09-09T04:37:14;3.15;;;1.70;;
9445;SDS011;4761;49.490;10.908;2022-09-09T04:39:39;1.58;;;1.05;;
9445;SDS011;4761;49.490;10.908;2022-09-09T04:42:05;2.92;;;1.20;;
9445;SDS011;4761;49.490;10.908;2022-09-09T04:44:30;1.70;;;1.25;;
9445;SDS011;4761;49.490;10.908;2022-09-09T04:46:56;2.95;;;1.38;;
9445;SDS011;4761;49.490;10.908;2022-09-09T04:49:21;1.23;;;1.05;;
9445;SDS011;4761;49.490;10.908;2022-09-09T04:51:48;2.33;;;1.40;;
9445;SDS011;4761;49.490;10.908;2022-09-09T04:54:14;4.05;;;1.60;;
9445;SDS011;4761;49.490;10.908;2022-09-09T04:56:40;3.03;;;1.42;;
9445;SDS011;4761;49.490;10.908;2022-09-09T04:59:07;1.60;;;1.40;;
9445;SDS011;4761;49.490;10.908;2022-09-09T05:01:33;1.92;;;1.40;;
9445;SDS011;4761;49.490;10.908;2022-09-09T05:03:59;1.80;;;1.30;;
9445;SDS011;4761;49.490;10.908;2022-09-09T05:06:24;1.80;;;1.35;;
9445;SDS011;4761;49.490;10.908;2022-09-09T05:08:50;2.47;;;1.35;;
9445;SDS011;4761;49.490;10.908;2022-09-09T05:11:16;3.10;;;1.45;;
9445;SDS011;4761;49.490;10.908;2022-09-09T05:13:45;2.10;;;1.35;;
9445;SDS011;4761;49.490;10.908;2022-09-09T05:16:12;1.88;;;1.50;;
9445;SDS011;4761;49.490;10.908;2022-09-09T05:18:38;3.30;;;1.52;;
9445;SDS011;4761;49.490;10.908;2022-09-09T05:21:05;2.28;;;1.48;;
9445;SDS011;4761;49.490;10.908;2022-09-09T05:23:31;2.05;;;1.40;;
9445;SDS011;4761;49.490;10.908;2022-09-09T05:25:58;2.08;;;1.20;;
9445;SDS011;4761;49.490;10.908;2022-09-09T05:28:25;2.10;;;1.40;;
9445;SDS011;4761;49.490;10.908;2022-09-09T05:31:01;2.33;;;1.33;;
9445;SDS011;4761;49.490;10.908;2022-09-09T05:33:33;2.15;;;1.20;;
9445;SDS011;4761;49.490;10.908;2022-09-09T05:36:00;1.90;;;1.13;;
9445;SDS011;4761;49.490;10.908;2022-09-09T05:38:30;1.30;;;1.10;;
9445;SDS011;4761;49.490;10.908;2022-09-09T05:40:57;2.88;;;1.30;;
9445;SDS011;4761;49.490;10.908;2022-09-09T05:43:24;1.83;;;1.13;;
9445;SDS011;4761;49.490;10.908;2022-09-09T05:46:01;2.60;;;1.30;;
9445;SDS011;4761;49.490;10.908;2022-09-09T05:48:40;1.38;;;1.20;;
9445;SDS011;4761;49.490;10.908;2022-09-09T05:51:08;2.63;;;1.33;;
9445;SDS011;4761;49.490;10.908;2022-09-09T05:53:37;1.42;;;1.20;;
9445;SDS011;4761;49.490;10.908;2022-09-09T05:58:30;2.92;;;1.20;;
9445;SDS011;4761;49.490;10.908;2022-09-09T06:01:03;1.48;;;1.27;;
9445;SDS011;4761;49.490;10.908;2022-09-09T06:03:35;2.80;;;1.30;;
9445;SDS011;4761;49.490;10.908;2022-09-09T06:06:02;2.60;;;1.33;;
9445;SDS011;4761;49.490;10.908;2022-09-09T06:08:32;2.38;;;1.50;;
9445;SDS011;4761;49.490;10.908;2022-09-09T06:11:12;2.38;;;1.40;;
9445;SDS011;4761;49.490;10.908;2022-09-09T06:13:39;2.55;;;1.55;;
9445;SDS011;4761;49.490;10.908;2022-09-09T06:16:06;2.22;;;1.80;;
9445;SDS011;4761;49.490;10.908;2022-09-09T06:18:34;2.40;;;2.20;;
9445;SDS011;4761;49.490;10.908;2022-09-09T06:21:01;3.70;;;2.58;;
9445;SDS011;4761;49.490;10.908;2022-09-09T06:23:29;2.65;;;2.30;;
9445;SDS011;4761;49.490;10.908;2022-09-09T06:26:05;3.28;;;2.22;;
9445;SDS011;4761;49.490;10.908;2022-09-09T06:28:33;3.67;;;2.13;;
9445;SDS011;4761;49.490;10.908;2022-09-09T06:31:00;3.53;;;2.03;;
9445;SDS011;4761;49.490;10.908;2022-09-09T06:33:30;3.80;;;2.03;;
9445;SDS011;4761;49.490;10.908;2022-09-09T06:35:57;2.83;;;1.90;;
9445;SDS011;4761;49.490;10.908;2022-09-09T06:38:23;3.28;;;2.25;;
9445;SDS011;4761;49.490;10.908;2022-09-09T06:40:55;2.22;;;1.65;;
9445;SDS011;4761;49.490;10.908;2022-09-09T06:43:22;2.03;;;1.50;;
9445;SDS011;4761;49.490;10.908;2022-09-09T06:48:22;2.78;;;1.50;;
9445;SDS011;4761;49.490;10.908;2022-09-09T06:50:48;3.30;;;1.38;;
9445;SDS011;4761;49.490;10.908;2022-09-09T06:53:17;2.28;;;1.65;;
9445;SDS011;4761;49.490;10.908;2022-09-09T06:55:44;2.42;;;1.52;;
9445;SDS011;4761;49.490;10.908;2022-09-09T06:58:10;3.55;;;1.80;;
9445;SDS011;4761;49.490;10.908;2022-09-09T07:00:36;2.83;;;1.75;;
9445;SDS011;4761;49.490;10.908;2022-09-09T07:03:04;2.08;;;1.40;;
9445;SDS011;4761;49.490;10.908;2022-09-09T07:05:31;2.88;;;1.40;;
9445;SDS011;4761;49.490;10.908;2022-09-09T07:07:56;1.50;;;1.30;;
9445;SDS011;4761;49.490;10.908;2022-09-09T07:10:22;2.13;;;1.48;;
9445;SDS011;4761;49.490;10.908;2022-09-09T07:12:53;1.80;;;1.38;;
9445;SDS011;4761;49.490;10.908;2022-09-09T07:15:19;2.05;;;1.42;;
9445;SDS011;4761;49.490;10.908;2022-09-09T07:17:46;2.28;;;1.30;;
9445;SDS011;4761;49.490;10.908;2022-09-09T07:20:13;3.00;;;1.40;;
9445;SDS011;4761;49.490;10.908;2022-09-09T07:22:39;2.13;;;1.40;;
9445;SDS011;4761;49.490;10.908;2022-09-09T07:25:05;1.17;;;1.08;;
9445;SDS011;4761;49.490;10.908;2022-09-09T07:27:31;2.63;;;1.30;;
9445;SDS011;4761;49.490;10.908;2022-09-09T07:29:57;2.05;;;1.30;;
9445;SDS011;4761;49.490;10.908;2022-09-09T07:32:22;3.58;;;1.38;;
9445;SDS011;4761;49.490;10.908;2022-09-09T07:34:48;2.45;;;1.50;;
9445;SDS011;4761;49.490;10.908;2022-09-09T07:37:15;2.90;;;1.48;;
9445;SDS011;4761;49.490;10.908;2022-09-09T07:39:41;2.42;;;1.23;;
9445;SDS011;4761;49.490;10.908;2022-09-09T07:42:07;1.58;;;1.20;;
9445;SDS011;4761;49.490;10.908;2022-09-09T07:44:36;3.60;;;1.30;;
9445;SDS011;4761;49.490;10.908;2022-09-09T07:47:04;2.05;;;1.15;;
9445;SDS011;4761;49.490;10.908;2022-09-09T07:49:29;2.35;;;1.10;;
9445;SDS011;4761;49.490;10.908;2022-09-09T07:51:55;1.40;;;1.10;;
9445;SDS011;4761;49.490;10.908;2022-09-09T07:54:20;2.72;;;1.30;;
9445;SDS011;4761;49.490;10.908;2022-09-09T07:56:48;2.10;;;1.13;;
9445;SDS011;4761;49.490;10.908;2022-09-09T07:59:14;3.30;;;0.98;;
9445;SDS011;4761;49.490;10.908;2022-09-09T08:01:41;2.33;;;1.00;;
9445;SDS011;4761;49.490;10.908;2022-09-09T08:04:12;1.92;;;1.00;;
9445;SDS011;4761;49.490;10.908;2022-09-09T08:06:43;3.00;;;1.20;;
9445;SDS011;4761;49.490;10.908;2022-09-09T08:09:11;2.47;;;1.20;;
9445;SDS011;4761;49.490;10.908;2022-09-09T08:11:37;1.58;;;1.00;;
9445;SDS011;4761;49.490;10.908;2022-09-09T08:14:03;2.53;;;1.38;;
9445;SDS011;4761;49.490;10.908;2022-09-09T08:16:31;2.63;;;1.40;;
9445;SDS011;4761;49.490;10.908;2022-09-09T08:18:58;2.53;;;1.30;;
9445;SDS011;4761;49.490;10.908;2022-09-09T08:21:25;2.42;;;1.40;;
9445;SDS011;4761;49.490;10.908;2022-09-09T08:23:57;2.10;;;1.10;;
9445;SDS011;4761;49.490;10.908;2022-09-09T08:26:25;1.55;;;1.10;;
9445;SDS011;4761;49.490;10.908;2022-09-09T08:28:56;1.63;;;1.05;;
9445;SDS011;4761;49.490;10.908;2022-09-09T08:31:24;2.42;;;1.38;;
9445;SDS011;4761;49.490;10.908;2022-09-09T08:33:58;3.00;;;1.20;;
9445;SDS011;4761;49.490;10.908;2022-09-09T08:36:26;1.45;;;0.90;;
9445;SDS011;4761;49.490;10.908;2022-09-09T08:38:54;1.52;;;1.05;;
9445;SDS011;4761;49.490;10.908;2022-09-09T08:41:29;2.42;;;1.20;;
9445;SDS011;4761;49.490;10.908;2022-09-09T08:52:16;3.33;;;1.13;;
9445;SDS011;4761;49.490;10.908;2022-09-09T08:54:48;2.17;;;1.08;;
9445;SDS011;4761;49.490;10.908;2022-09-09T08:57:18;1.63;;;0.98;;
9445;SDS011;4761;49.490;10.908;2022-09-09T08:59:51;1.83;;;1.20;;
9445;SDS011;4761;49.490;10.908;2022-09-09T09:02:42;1.33;;;0.90;;
9445;SDS011;4761;49.490;10.908;2022-09-09T09:10:29;1.55;;;0.80;;
9445;SDS011;4761;49.490;10.908;2022-09-09T09:16:20;1.55;;;0.90;;
9445;SDS011;4761;49.490;10.908;2022-09-09T09:18:52;1.67;;;0.90;;
9445;SDS011;4761;49.490;10.908;2022-09-09T09:21:21;1.50;;;0.80;;
9445;SDS011;4761;49.490;10.908;2022-09-09T09:24:03;1.85;;;1.00;;
9445;SDS011;4761;49.490;10.908;2022-09-09T09:26:35;0.70;;;0.70;;
9445;SDS011;4761;49.490;10.908;2022-09-09T09:29:03;0.98;;;0.88;;
9445;SDS011;4761;49.490;10.908;2022-09-09T09:31:36;0.98;;;0.88;;
9445;SDS011;4761;49.490;10.908;2022-09-09T09:34:02;1.88;;;0.73;;
9445;SDS011;4761;49.490;10.908;2022-09-09T09:36:37;1.73;;;0.85;;
9445;SDS011;4761;49.490;10.908;2022-09-09T09:39:07;1.35;;;0.80;;
9445;SDS011;4761;49.490;10.908;2022-09-09T09:41:35;1.58;;;1.00;;
9445;SDS011;4761;49.490;10.908;2022-09-09T09:44:04;1.25;;;0.90;;
9445;SDS011;4761;49.490;10.908;2022-09-09T09:46:30;0.70;;;0.70;;
9445;SDS011;4761;49.490;10.908;2022-09-09T09:49:01;2.25;;;0.90;;
9445;SDS011;4761;49.490;10.908;2022-09-09T09:51:30;1.70;;;0.98;;
9445;SDS011;4761;49.490;10.908;2022-09-09T09:56:38;1.52;;;0.90;;
9445;SDS011;4761;49.490;10.908;2022-09-09T09:59:05;1.10;;;0.80;;
9445;SDS011;4761;49.490;10.908;2022-09-09T10:01:31;0.75;;;0.70;;
9445;SDS011;4761;49.490;10.908;2022-09-09T10:06:48;1.05;;;0.70;;
9445;SDS011;4761;49.490;10.908;2022-09-09T10:09:25;1.13;;;0.80;;
9445;SDS011;4761;49.490;10.908;2022-09-09T10:23:56;1.23;;;0.70;;
9445;SDS011;4761;49.490;10.908;2022-09-09T10:26:35;1.58;;;0.65;;
9445;SDS011;4761;49.490;10.908;2022-09-09T10:42:44;1.00;;;0.70;;
9445;SDS011;4761;49.490;10.908;2022-09-09T10:45:18;1.00;;;0.70;;
9445;SDS011;4761;49.490;10.908;2022-09-09T10:48:00;1.60;;;0.80;;
9445;SDS011;4761;49.490;10.908;2022-09-09T10:50:43;1.25;;;0.70;;
9445;SDS011;4761;49.490;10.908;2022-09-09T10:53:34;0.85;;;0.60;;
9445;SDS011;4761;49.490;10.908;2022-09-09T10:56:13;1.42;;;0.70;;
9445;SDS011;4761;49.490;10.908;2022-09-09T11:01:26;0.90;;;0.70;;
9445;SDS011;4761;49.490;10.908;2022-09-09T11:03:57;2.90;;;0.90;;
9445;SDS011;4761;49.490;10.908;2022-09-09T11:06:32;2.17;;;0.77;;
9445;SDS011;4761;49.490;10.908;2022-09-09T11:09:04;1.50;;;0.60;;
9445;SDS011;4761;49.490;10.908;2022-09-09T11:17:20;1.23;;;0.70;;
9445;SDS011;4761;49.490;10.908;2022-09-09T11:19:50;1.08;;;0.60;;
9445;SDS011;4761;49.490;10.908;2022-09-09T11:22:23;2.03;;;0.60;;
9445;SDS011;4761;49.490;10.908;2022-09-09T11:24:58;1.30;;;0.70;;
9445;SDS011;4761;49.490;10.908;2022-09-09T11:38:53;1.75;;;0.77;;
9445;SDS011;4761;49.490;10.908;2022-09-09T11:41:37;1.25;;;0.77;;
9445;SDS011;4761;49.490;10.908;2022-09-09T11:44:10;1.67;;;0.70;;
9445;SDS011;4761;49.490;10.908;2022-09-09T11:46:38;1.00;;;0.70;;
9445;SDS011;4761;49.490;10.908;2022-09-09T11:49:21;1.02;;;0.68;;
9445;SDS011;4761;49.490;10.908;2022-09-09T11:52:11;1.52;;;0.70;;
9445;SDS011;4761;49.490;10.908;2022-09-09T11:54:47;0.80;;;0.75;;
9445;SDS011;4761;49.490;10.908;2022-09-09T11:57:34;1.90;;;0.73;;
9445;SDS011;4761;49.490;10.908;2022-09-09T12:00:01;4.22;;;0.95;;
9445;SDS011;4761;49.490;10.908;2022-09-09T12:02:28;0.70;;;0.60;;
9445;SDS011;4761;49.490;10.908;2022-09-09T12:04:58;1.73;;;0.80;;
9445;SDS011;4761;49.490;10.908;2022-09-09T12:07:35;1.23;;;0.60;;
9445;SDS011;4761;49.490;10.908;2022-09-09T12:12:53;1.20;;;0.85;;
9445;SDS011;4761;49.490;10.908;2022-09-09T12:15:20;1.58;;;0.90;;
9445;SDS011;4761;49.490;10.908;2022-09-09T12:17:49;1.17;;;0.70;;
9445;SDS011;4761;49.490;10.908;2022-09-09T12:28:09;1.35;;;0.70;;
9445;SDS011;4761;49.490;10.908;2022-09-09T12:30:49;1.48;;;0.88;;
9445;SDS011;4761;49.490;10.908;2022-09-09T12:33:33;2.70;;;0.80;;
9445;SDS011;4761;49.490;10.908;2022-09-09T12:36:05;0.60;;;0.60;;
9445;SDS011;4761;49.490;10.908;2022-09-09T12:38:39;2.25;;;0.75;;
9445;SDS011;4761;49.490;10.908;2022-09-09T12:41:05;1.85;;;0.90;;
9445;SDS011;4761;49.490;10.908;2022-09-09T12:43:31;1.50;;;0.70;;
9445;SDS011;4761;49.490;10.908;2022-09-09T12:46:01;1.63;;;0.77;;
9445;SDS011;4761;49.490;10.908;2022-09-09T12:48:34;1.95;;;0.73;;
9445;SDS011;4761;49.490;10.908;2022-09-09T12:51:03;4.45;;;0.80;;
9445;SDS011;4761;49.490;10.908;2022-09-09T12:53:33;2.38;;;0.82;;
9445;SDS011;4761;49.490;10.908;2022-09-09T12:56:07;2.47;;;0.90;;
9445;SDS011;4761;49.490;10.908;2022-09-09T12:58:44;1.98;;;1.05;;
9445;SDS011;4761;49.490;10.908;2022-09-09T13:01:18;1.60;;;0.90;;
9445;SDS011;4761;49.490;10.908;2022-09-09T13:03:47;3.53;;;1.15;;
9445;SDS011;4761;49.490;10.908;2022-09-09T13:06:17;1.92;;;1.10;;
9445;SDS011;4761;49.490;10.908;2022-09-09T13:08:51;2.65;;;1.00;;
9445;SDS011;4761;49.490;10.908;2022-09-09T13:11:20;2.70;;;0.93;;
9445;SDS011;4761;49.490;10.908;2022-09-09T13:13:50;2.83;;;1.15;;
9445;SDS011;4761;49.490;10.908;2022-09-09T13:16:20;2.40;;;1.10;;
9445;SDS011;4761;49.490;10.908;2022-09-09T13:18:50;2.10;;;1.20;;
9445;SDS011;4761;49.490;10.908;2022-09-09T13:21:16;2.08;;;1.08;;
9445;SDS011;4761;49.490;10.908;2022-09-09T13:23:42;3.47;;;1.20;;
9445;SDS011;4761;49.490;10.908;2022-09-09T13:26:22;1.52;;;0.90;;
9445;SDS011;4761;49.490;10.908;2022-09-09T13:28:49;1.80;;;1.00;;
9445;SDS011;4761;49.490;10.908;2022-09-09T13:31:36;2.65;;;1.10;;
9445;SDS011;4761;49.490;10.908;2022-09-09T13:34:25;2.22;;;1.13;;
9445;SDS011;4761;49.490;10.908;2022-09-09T13:36:59;1.77;;;0.90;;
9445;SDS011;4761;49.490;10.908;2022-09-09T13:39:30;2.28;;;0.98;;
9445;SDS011;4761;49.490;10.908;2022-09-09T13:41:59;2.53;;;1.10;;
9445;SDS011;4761;49.490;10.908;2022-09-09T13:44:35;1.63;;;0.88;;
9445;SDS011;4761;49.490;10.908;2022-09-09T13:49:44;2.70;;;1.00;;
9445;SDS011;4761;49.490;10.908;2022-09-09T13:54:41;1.58;;;0.98;;
9445;SDS011;4761;49.490;10.908;2022-09-09T13:57:14;2.17;;;1.08;;
9445;SDS011;4761;49.490;10.908;2022-09-09T13:59:43;2.80;;;1.08;;
9445;SDS011;4761;49.490;10.908;2022-09-09T14:02:09;2.70;;;1.20;;
9445;SDS011;4761;49.490;10.908;2022-09-09T14:04:35;2.67;;;1.20;;
9445;SDS011;4761;49.490;10.908;2022-09-09T14:07:00;3.08;;;1.10;;
9445;SDS011;4761;49.490;10.908;2022-09-09T14:09:26;1.55;;;1.00;;
9445;SDS011;4761;49.490;10.908;2022-09-09T14:11:52;3.03;;;1.40;;
9445;SDS011;4761;49.490;10.908;2022-09-09T14:14:17;4.45;;;1.02;;
9445;SDS011;4761;49.490;10.908;2022-09-09T14:16:43;2.75;;;0.90;;
9445;SDS011;4761;49.490;10.908;2022-09-09T14:19:09;2.08;;;0.95;;
9445;SDS011;4761;49.490;10.908;2022-09-09T14:21:34;4.22;;;1.35;;
9445;SDS011;4761;49.490;10.908;2022-09-09T14:24:00;2.42;;;1.05;;
9445;SDS011;4761;49.490;10.908;2022-09-09T14:26:26;2.75;;;1.10;;
9445;SDS011;4761;49.490;10.908;2022-09-09T14:28:53;3.28;;;1.27;;
9445;SDS011;4761;49.490;10.908;2022-09-09T14:31:19;2.60;;;1.10;;
9445;SDS011;4761;49.490;10.908;2022-09-09T14:33:45;3.42;;;1.23;;
9445;SDS011;4761;49.490;10.908;2022-09-09T14:36:11;2.28;;;0.95;;
9445;SDS011;4761;49.490;10.908;2022-09-09T14:38:38;2.95;;;1.02;;
9445;SDS011;4761;49.490;10.908;2022-09-09T14:41:05;1.63;;;0.85;;
9445;SDS011;4761;49.490;10.908;2022-09-09T14:43:31;2.33;;;0.98;;
9445;SDS011;4761;49.490;10.908;2022-09-09T14:45:57;3.05;;;0.90;;
9445;SDS011;4761;49.490;10.908;2022-09-09T14:48:33;3.47;;;1.05;;
9445;SDS011;4761;49.490;10.908;2022-09-09T14:51:04;1.27;;;0.73;;
9445;SDS011;4761;49.490;10.908;2022-09-09T14:53:33;4.20;;;1.45;;
9445;SDS011;4761;49.490;10.908;2022-09-09T14:56:03;3.00;;;1.20;;
9445;SDS011;4761;49.490;10.908;2022-09-09T14:58:33;2.45;;;1.00;;
9445;SDS011;4761;49.490;10.908;2022-09-09T15:01:06;4.57;;;1.10;;
9445;SDS011;4761;49.490;10.908;2022-09-09T15:03:34;2.58;;;1.10;;
9445;SDS011;4761;49.490;10.908;2022-09-09T15:06:04;4.63;;;1.20;;
9445;SDS011;4761;49.490;10.908;2022-09-09T15:08:31;1.75;;;1.00;;
9445;SDS011;4761;49.490;10.908;2022-09-09T15:11:00;1.60;;;1.00;;
9445;SDS011;4761;49.490;10.908;2022-09-09T15:13:27;2.28;;;0.82;;
9445;SDS011;4761;49.490;10.908;2022-09-09T15:15:53;2.80;;;1.10;;
9445;SDS011;4761;49.490;10.908;2022-09-09T15:18:19;2.95;;;1.17;;
9445;SDS011;4761;49.490;10.908;2022-09-09T15:20:45;2.05;;;0.90;;
9445;SDS011;4761;49.490;10.908;2022-09-09T15:23:11;3.17;;;1.33;;
9445;SDS011;4761;49.490;10.908;2022-09-09T15:25:37;2.58;;;0.93;;
9445;SDS011;4761;49.490;10.908;2022-09-09T15:28:02;2.97;;;1.00;;
9445;SDS011;4761;49.490;10.908;2022-09-09T15:30:28;2.47;;;1.17;;
9445;SDS011;4761;49.490;10.908;2022-09-09T15:32:53;5.32;;;1.17;;
9445;SDS011;4761;49.490;10.908;2022-09-09T15:35:19;2.53;;;0.73;;
9445;SDS011;4761;49.490;10.908;2022-09-09T15:37:45;1.65;;;0.90;;
9445;SDS011;4761;49.490;10.908;2022-09-09T15:40:10;1.63;;;0.80;;
9445;SDS011;4761;49.490;10.908;2022-09-09T15:42:36;2.97;;;1.25;;
9445;SDS011;4761;49.490;10.908;2022-09-09T15:45:02;1.23;;;0.68;;
9445;SDS011;4761;49.490;10.908;2022-09-09T15:47:31;1.83;;;1.00;;
9445;SDS011;4761;49.490;10.908;2022-09-09T15:49:58;1.25;;;0.90;;
9445;SDS011;4761;49.490;10.908;2022-09-09T15:52:23;1.58;;;1.00;;
9445;SDS011;4761;49.490;10.908;2022-09-09T15:54:49;2.00;;;1.02;;
9445;SDS011;4761;49.490;10.908;2022-09-09T15:57:14;1.55;;;0.90;;
9445;SDS011;4761;49.490;10.908;2022-09-09T15:59:40;1.08;;;0.80;;
9445;SDS011;4761;49.490;10.908;2022-09-09T16:02:05;1.25;;;0.90;;
9445;SDS011;4761;49.490;10.908;2022-09-09T16:04:31;2.58;;;1.00;;
9445;SDS011;4761;49.490;10.908;2022-09-09T16:07:00;0.95;;;0.80;;
9445;SDS011;4761;49.490;10.908;2022-09-09T16:09:27;2.00;;;1.00;;
9445;SDS011;4761;49.490;10.908;2022-09-09T16:11:55;1.40;;;0.80;;
9445;SDS011;4761;49.490;10.908;2022-09-09T16:14:23;2.47;;;0.90;;
9445;SDS011;4761;49.490;10.908;2022-09-09T16:16:49;1.40;;;0.82;;
9445;SDS011;4761;49.490;10.908;2022-09-09T16:19:15;1.73;;;0.90;;
9445;SDS011;4761;49.490;10.908;2022-09-09T16:21:41;0.85;;;0.77;;
9445;SDS011;4761;49.490;10.908;2022-09-09T16:24:10;0.85;;;0.75;;
9445;SDS011;4761;49.490;10.908;2022-09-09T16:26:38;1.30;;;0.82;;
9445;SDS011;4761;49.490;10.908;2022-09-09T16:29:05;1.52;;;1.00;;
9445;SDS011;4761;49.490;10.908;2022-09-09T16:31:31;1.52;;;0.90;;
9445;SDS011;4761;49.490;10.908;2022-09-09T16:33:57;0.90;;;0.70;;
9445;SDS011;4761;49.490;10.908;2022-09-09T16:36:24;1.27;;;0.80;;
9445;SDS011;4761;49.490;10.908;2022-09-09T16:38:52;1.17;;;1.00;;
9445;SDS011;4761;49.490;10.908;2022-09-09T16:41:22;2.13;;;1.13;;
9445;SDS011;4761;49.490;10.908;2022-09-09T16:43:47;1.58;;;1.00;;
9445;SDS011;4761;49.490;10.908;2022-09-09T16:46:21;0.80;;;0.80;;
9445;SDS011;4761;49.490;10.908;2022-09-09T16:48:48;1.15;;;0.75;;
9445;SDS011;4761;49.490;10.908;2022-09-09T16:51:15;1.95;;;0.90;;
9445;SDS011;4761;49.490;10.908;2022-09-09T16:53:43;1.10;;;0.70;;
9445;SDS011;4761;49.490;10.908;2022-09-09T16:56:10;1.67;;;0.90;;
9445;SDS011;4761;49.490;10.908;2022-09-09T16:58:37;0.60;;;0.60;;
9445;SDS011;4761;49.490;10.908;2022-09-09T17:01:03;1.17;;;0.75;;
9445;SDS011;4761;49.490;10.908;2022-09-09T17:03:30;0.90;;;0.70;;
9445;SDS011;4761;49.490;10.908;2022-09-09T17:05:57;1.30;;;0.70;;
9445;SDS011;4761;49.490;10.908;2022-09-09T17:08:26;1.50;;;0.82;;
9445;SDS011;4761;49.490;10.908;2022-09-09T17:10:55;0.82;;;0.80;;
9445;SDS011;4761;49.490;10.908;2022-09-09T17:13:21;1.75;;;0.85;;
9445;SDS011;4761;49.490;10.908;2022-09-09T17:15:47;1.50;;;0.60;;
9445;SDS011;4761;49.490;10.908;2022-09-09T17:18:12;1.05;;;0.70;;
9445;SDS011;4761;49.490;10.908;2022-09-09T17:20:38;0.98;;;0.70;;
9445;SDS011;4761;49.490;10.908;2022-09-09T17:23:06;0.80;;;0.60;;
9445;SDS011;4761;49.490;10.908;2022-09-09T17:25:32;1.92;;;0.95;;